메인 페이지
METAR-TAF:

METAR-TAF

공항 :

헨리 코안더 국제공항

부쿠레슈티, 루마니아

위도: 44-33N, 경도: 026-06E, 고도: 95m

현재 날씨관측

예보는 17분 전, 15:00시(UTC)에 발표되었습니다.
동북동13kt
온도 5°C
습도 93%
기압 1018 hPa
시정: 9000m
고도 1000ft 상공 흐림

METAR: LROP 111500Z 07013KT 9000 OVC010 05/04 Q1018 R88/19//95 TEMPO 5000 -RA

시각: 17:17 (15:17 UTC)

예보

예보는 3 시간 16분 전, 12:01시(UTC)에 발표되었습니다.
예보 대상 시간: 11일 12시부터 12일 12시까지 (UTC)
동북동12kt
시정: 7000m
고도 1500ft 상공 구름 많음
고도 3500ft 상공 구름 많음
약한비
일시적
11일 12시부터 11일 23시까지 (UTC)
시정: 5000m
고도 1000ft 상공 구름 많음
고도 3000ft 상공 구름 많음
약한비, 박무
전환 중
11일 23시부터 12일 01시까지 (UTC)
시정: 3000m
고도 1000ft 상공 구름 많음
고도 3000ft 상공 구름 많음
약한비, 이슬비

TAF: LROP 111201Z 1112/1212 06012KT 7000 -RA BKN015 BKN035 TEMPO 1112/1123 5000 -RA BR BKN010 BKN030 BECMG 1123/1201 3000 -RADZ BKN010 BKN030

4,000개 이상의 공항 관측 자료 및 예보 (METAR 및 TAF 보고).

지도상에서 검색 가능한 기상관측소가 노란 점과 빨간 점으로 표시되어 있습니다.

기상관측소 명을 보려면 표시 위로 마우스를 이동하세요.

날씨 관측과 예보를 보려면 클릭하세요.

지도 변경 : 확대하려면 엑스 표시가 있는 녹색 버튼, 축소하려면 빼기 표시가 있는 녹색 버튼, 다음 페이지의 지도를 보려면 녹색 화살표를 클릭하세요.


METAR-TAF: